Time;durP1;ratioP1;P1;durP2;ratioP2;P2;SDS_P1;SDS_P2;PMS_P1;PMS_P2;Temp;Humidity;BMP_temperature;BMP_pressure;BME280_temperature;BME280_humidity;BME280_pressure;Samples;Min_cycle;Max_cycle;Signal;HPM_P1;HPM_P2
2023/07/06 00:01:39;;;;;;;;;;;18.40;70.70;;;;;;6305490;22;19918;-75
2023/07/06 00:04:05;;;;;;;;;;;18.40;70.70;;;;;;6305826;22;19915;-75
2023/07/06 00:06:32;;;;;;;;;;;18.40;70.70;;;;;;6278491;22;19990;-75
2023/07/06 00:08:58;;;;;;;;;;;18.40;70.60;;;;;;6305885;22;19907;-75
2023/07/06 00:11:23;;;;;;;;;;;18.50;70.60;;;;;;6278500;22;19992;-75
2023/07/06 00:13:49;;;;;;;;;;;18.50;70.50;;;;;;6305778;22;19907;-75
2023/07/06 00:16:14;;;;;;;;;;;18.40;70.40;;;;;;6306043;22;20333;-75
2023/07/06 00:18:41;;;;;;;;;;;18.40;70.40;;;;;;6306370;22;19907;-75
2023/07/06 00:21:06;;;;;;;;;;;18.40;70.30;;;;;;6278443;22;20312;-75
2023/07/06 00:23:32;;;;;;;;;;;18.40;70.10;;;;;;6306204;22;19903;-75
2023/07/06 00:25:57;;;;;;;;;;;18.40;70.00;;;;;;6305733;22;19911;-75
2023/07/06 00:28:24;;;;;;;;;;;18.30;69.60;;;;;;6306602;22;20302;-75
2023/07/06 00:30:55;;;;;;;;;;;18.20;69.20;;;;;;6305644;22;19911;-75
2023/07/06 00:33:21;;;;;;;;;;;18.20;69.10;;;;;;6278533;22;19910;-75
2023/07/06 00:35:47;;;;;;;;;;;18.20;69.30;;;;;;6304719;22;19969;-75
2023/07/06 00:38:14;;;;;;;;;;;18.10;69.30;;;;;;6304653;22;19903;-75
2023/07/06 00:40:41;;;;;;;;;;;18.00;69.00;;;;;;6305634;22;20324;-75
2023/07/06 00:43:10;;;;;;;;;;;18.00;68.80;;;;;;6306048;22;19942;-74
2023/07/06 00:45:37;;;;;;;;;;;17.80;68.60;;;;;;6305289;22;19938;-75
2023/07/06 00:48:03;;;;;;;;;;;17.80;68.60;;;;;;6305593;22;19970;-75
2023/07/06 00:50:29;;;;;;;;;;;17.80;68.40;;;;;;6278647;22;19942;-75
2023/07/06 00:52:58;;;;;;;;;;;17.70;68.40;;;;;;6305553;22;19926;-75
2023/07/06 00:55:25;;;;;;;;;;;17.60;68.20;;;;;;6305482;22;20348;-74
2023/07/06 00:57:54;;;;;;;;;;;17.50;67.80;;;;;;6305825;22;19965;-74
2023/07/06 01:00:20;;;;;;;;;;;17.50;67.70;;;;;;6306148;22;20347;-74
2023/07/06 01:02:46;;;;;;;;;;;17.40;67.90;;;;;;6305937;22;19972;-75
2023/07/06 01:05:12;;;;;;;;;;;17.30;67.90;;;;;;6305494;22;19907;-75
2023/07/06 01:07:39;;;;;;;;;;;17.30;68.20;;;;;;6305868;22;19914;-74
2023/07/06 01:10:05;;;;;;;;;;;17.20;68.00;;;;;;6305873;22;20359;-74
2023/07/06 01:12:31;;;;;;;;;;;17.20;68.50;;;;;;6305982;22;19907;-74
2023/07/06 01:14:57;;;;;;;;;;;17.10;68.40;;;;;;6307406;22;20414;-74
2023/07/06 01:17:25;;;;;;;;;;;17.10;68.20;;;;;;6307734;22;19981;-74
2023/07/06 01:20:04;;;;;;;;;;;17.00;68.10;;;;;;6307486;22;20392;-74
2023/07/06 01:22:47;;;;;;;;;;;17.00;68.40;;;;;;6307599;22;19903;-74
2023/07/06 01:25:40;;;;;;;;;;;16.90;68.40;;;;;;6307485;22;19911;-75
2023/07/06 01:28:18;;;;;;;;;;;16.90;68.30;;;;;;6307998;22;19986;-74
2023/07/06 01:31:02;;;;;;;;;;;16.80;68.50;;;;;;6307453;22;19918;-74
2023/07/06 01:33:32;;;;;;;;;;;16.80;69.00;;;;;;6307258;22;20301;-74
2023/07/06 01:36:01;;;;;;;;;;;16.80;69.70;;;;;;6307223;22;19991;-74
2023/07/06 01:38:27;;;;;;;;;;;16.90;70.20;;;;;;6307431;22;19903;-75
2023/07/06 01:40:52;;;;;;;;;;;17.10;70.60;;;;;;6307193;22;20249;-74
2023/07/06 01:43:19;;;;;;;;;;;17.10;70.70;;;;;;6307726;22;20342;-74
2023/07/06 01:45:46;;;;;;;;;;;17.20;70.90;;;;;;6279315;22;20258;-74
2023/07/06 01:48:12;;;;;;;;;;;17.30;70.90;;;;;;6307546;22;19964;-74
2023/07/06 01:50:38;;;;;;;;;;;17.40;70.90;;;;;;6306156;22;19915;-74
2023/07/06 01:53:31;;;;;;;;;;;17.50;71.00;;;;;;6279719;22;20279;-74
2023/07/06 01:56:04;;;;;;;;;;;17.50;70.90;;;;;;6291668;22;19949;-74
2023/07/06 01:58:32;;;;;;;;;;;17.60;70.90;;;;;;6307101;22;19907;-74
2023/07/06 02:01:09;;;;;;;;;;;17.70;70.80;;;;;;6307019;22;19907;-74
2023/07/06 02:03:36;;;;;;;;;;;17.70;70.70;;;;;;6279837;22;19982;-74
2023/07/06 02:06:03;;;;;;;;;;;17.70;70.50;;;;;;6306947;22;19911;-74
2023/07/06 02:08:28;;;;;;;;;;;17.70;70.40;;;;;;6279839;22;19910;-74
2023/07/06 02:10:54;;;;;;;;;;;17.70;70.10;;;;;;6306904;22;19911;-74
2023/07/06 02:13:20;;;;;;;;;;;17.70;69.70;;;;;;6307158;22;19978;-74
2023/07/06 02:15:45;;;;;;;;;;;17.60;69.20;;;;;;6306671;22;20336;-74
2023/07/06 02:18:10;;;;;;;;;;;17.50;68.80;;;;;;6307026;22;19909;-74
2023/07/06 02:20:36;;;;;;;;;;;17.40;68.60;;;;;;6279324;22;19943;-74
2023/07/06 02:23:01;;;;;;;;;;;17.30;68.70;;;;;;6306912;22;19956;-74
2023/07/06 02:25:27;;;;;;;;;;;17.30;68.80;;;;;;6306309;22;19938;-74
2023/07/06 02:27:52;;;;;;;;;;;17.30;69.30;;;;;;6307153;22;19903;-74
2023/07/06 02:30:18;;;;;;;;;;;17.30;69.40;;;;;;6307010;22;19917;-74
2023/07/06 02:32:43;;;;;;;;;;;17.20;69.50;;;;;;6307008;22;19982;-74
2023/07/06 02:35:12;;;;;;;;;;;17.20;69.30;;;;;;6306543;22;19919;-74
2023/07/06 02:37:38;;;;;;;;;;;17.20;69.30;;;;;;6306860;22;19974;-74
2023/07/06 02:40:08;;;;;;;;;;;17.10;69.50;;;;;;6306590;22;19911;-74
2023/07/06 02:42:34;;;;;;;;;;;17.20;69.70;;;;;;6306836;22;19910;-74
2023/07/06 02:45:00;;;;;;;;;;;17.10;69.80;;;;;;6306484;22;19910;-74
2023/07/06 02:47:25;;;;;;;;;;;17.10;69.50;;;;;;6278812;22;20486;-74
2023/07/06 02:49:51;;;;;;;;;;;17.10;69.40;;;;;;6306277;22;19922;-74
2023/07/06 02:52:16;;;;;;;;;;;17.10;69.50;;;;;;6306331;22;20483;-74
2023/07/06 02:54:42;;;;;;;;;;;17.10;69.70;;;;;;6306403;22;19914;-74
2023/07/06 02:57:07;;;;;;;;;;;17.10;69.90;;;;;;6306402;22;20339;-74
2023/07/06 02:59:33;;;;;;;;;;;17.10;69.90;;;;;;6306466;22;19917;-74
2023/07/06 03:01:58;;;;;;;;;;;17.10;70.00;;;;;;6306397;22;19907;-74
2023/07/06 03:04:25;;;;;;;;;;;17.10;70.10;;;;;;6306670;22;19958;-74
2023/07/06 03:06:50;;;;;;;;;;;17.20;70.20;;;;;;6306374;22;19907;-74
2023/07/06 03:09:17;;;;;;;;;;;17.20;70.30;;;;;;6306206;22;19914;-74
2023/07/06 03:11:44;;;;;;;;;;;17.20;70.20;;;;;;6306268;22;19903;-74
2023/07/06 03:14:10;;;;;;;;;;;17.20;70.10;;;;;;6306071;22;19915;-74
2023/07/06 03:16:39;;;;;;;;;;;17.20;69.90;;;;;;6306109;22;19952;-74
2023/07/06 03:19:05;;;;;;;;;;;17.20;69.80;;;;;;6306205;22;20085;-74
2023/07/06 03:21:31;;;;;;;;;;;17.10;69.50;;;;;;6305423;22;19926;-74
2023/07/06 03:23:57;;;;;;;;;;;17.10;69.20;;;;;;6305901;22;19907;-74
2023/07/06 03:26:24;;;;;;;;;;;17.10;69.20;;;;;;6306004;22;20218;-74
2023/07/06 03:28:49;;;;;;;;;;;17.10;69.10;;;;;;6306513;22;20361;-74
2023/07/06 03:31:15;;;;;;;;;;;17.10;69.50;;;;;;6306078;22;19935;-74
2023/07/06 03:33:41;;;;;;;;;;;17.10;69.70;;;;;;6306362;22;19946;-74
2023/07/06 03:36:07;;;;;;;;;;;17.10;69.70;;;;;;6305885;22;19907;-74
2023/07/06 03:38:35;;;;;;;;;;;17.10;69.70;;;;;;6306638;22;19907;-74
2023/07/06 03:41:04;;;;;;;;;;;17.10;69.90;;;;;;6306246;22;19907;-74
2023/07/06 03:43:30;;;;;;;;;;;17.20;69.80;;;;;;6306068;22;19907;-74
2023/07/06 03:45:55;;;;;;;;;;;17.20;69.90;;;;;;6305791;22;20244;-75
2023/07/06 03:48:21;;;;;;;;;;;17.30;69.90;;;;;;6305361;22;19978;-74
2023/07/06 03:50:53;;;;;;;;;;;17.30;69.90;;;;;;6305774;22;19982;-74
2023/07/06 03:53:19;;;;;;;;;;;17.40;69.90;;;;;;6305802;22;19915;-74
2023/07/06 03:55:46;;;;;;;;;;;17.40;69.80;;;;;;6305472;22;20006;-74
2023/07/06 03:58:11;;;;;;;;;;;17.50;70.20;;;;;;6305563;22;19907;-74
2023/07/06 04:00:37;;;;;;;;;;;17.70;70.30;;;;;;6305661;22;19907;-74
2023/07/06 04:03:03;;;;;;;;;;;17.90;70.40;;;;;;6306468;22;20289;-74
2023/07/06 04:05:32;;;;;;;;;;;18.00;70.50;;;;;;6305793;22;19907;-74
2023/07/06 04:07:58;;;;;;;;;;;18.30;70.50;;;;;;6306142;22;20332;-75
2023/07/06 04:10:23;;;;;;;;;;;18.40;70.30;;;;;;6305467;22;20309;-74
2023/07/06 04:12:49;;;;;;;;;;;18.50;69.70;;;;;;6278409;22;19956;-75
2023/07/06 04:15:17;;;;;;;;;;;18.50;69.70;;;;;;6305527;22;19990;-74
2023/07/06 04:17:43;;;;;;;;;;;18.70;69.90;;;;;;6305994;22;20304;-73
2023/07/06 04:20:18;;;;;;;;;;;18.80;70.00;;;;;;6305383;22;20012;-74
2023/07/06 04:22:44;;;;;;;;;;;19.10;70.00;;;;;;6305838;22;19907;-74
2023/07/06 04:25:10;;;;;;;;;;;19.30;70.20;;;;;;6305547;22;19938;-74
2023/07/06 04:27:35;;;;;;;;;;;19.50;70.30;;;;;;6305715;22;20313;-74
2023/07/06 04:30:01;;;;;;;;;;;19.70;70.70;;;;;;6305593;22;19907;-75
2023/07/06 04:32:31;;;;;;;;;;;20.00;70.40;;;;;;6305602;22;19949;-74
2023/07/06 04:34:59;;;;;;;;;;;20.20;70.60;;;;;;6304968;22;19915;-75
2023/07/06 04:37:25;;;;;;;;;;;20.40;70.80;;;;;;6305464;22;19911;-76
2023/07/06 04:39:50;;;;;;;;;;;20.70;71.10;;;;;;6305528;22;20348;-74
2023/07/06 04:42:16;;;;;;;;;;;21.10;71.00;;;;;;6305470;22;20327;-74
2023/07/06 04:44:43;;;;;;;;;;;21.30;70.90;;;;;;6305669;22;19978;-75
2023/07/06 04:47:08;;;;;;;;;;;21.60;70.90;;;;;;6305443;22;19989;-75
2023/07/06 04:49:33;;;;;;;;;;;21.80;70.60;;;;;;6307282;22;20293;-74
2023/07/06 04:52:00;;;;;;;;;;;22.10;70.30;;;;;;6307526;22;19907;-74
2023/07/06 04:54:25;;;;;;;;;;;22.30;70.10;;;;;;6307451;22;20016;-74
2023/07/06 04:56:51;;;;;;;;;;;22.60;70.10;;;;;;6307642;22;20297;-72
2023/07/06 04:59:16;;;;;;;;;;;22.80;69.70;;;;;;6307521;22;19907;-73
2023/07/06 05:01:42;;;;;;;;;;;23.00;69.20;;;;;;6280375;22;19903;-73
2023/07/06 05:04:09;;;;;;;;;;;23.20;69.80;;;;;;6279920;22;20352;-72
2023/07/06 05:06:34;;;;;;;;;;;23.40;69.70;;;;;;6307325;22;19934;-73
2023/07/06 05:09:03;;;;;;;;;;;23.80;70.10;;;;;;6307455;22;19911;-73
2023/07/06 05:11:30;;;;;;;;;;;24.00;70.00;;;;;;6307359;22;19903;-74
2023/07/06 05:13:56;;;;;;;;;;;24.30;70.00;;;;;;6307214;22;19915;-75
2023/07/06 05:16:22;;;;;;;;;;;24.70;69.40;;;;;;6307397;22;20419;-76
2023/07/06 05:18:49;;;;;;;;;;;24.90;69.60;;;;;;6308226;22;19907;-76
2023/07/06 05:21:14;;;;;;;;;;;25.20;69.50;;;;;;6307579;22;19907;-76
2023/07/06 05:23:40;;;;;;;;;;;25.50;69.30;;;;;;6307428;22;20371;-77
2023/07/06 05:26:07;;;;;;;;;;;25.80;69.00;;;;;;6306621;22;20333;-75
2023/07/06 05:28:32;;;;;;;;;;;26.10;69.00;;;;;;6279775;22;19907;-76
2023/07/06 05:31:00;;;;;;;;;;;26.40;67.50;;;;;;6307260;22;19989;-78
2023/07/06 05:33:26;;;;;;;;;;;26.50;67.40;;;;;;6307453;22;19950;-77
2023/07/06 05:35:51;;;;;;;;;;;26.60;67.60;;;;;;6306084;22;19918;-77
2023/07/06 05:38:17;;;;;;;;;;;26.70;68.10;;;;;;6307748;22;19914;-78
2023/07/06 05:40:42;;;;;;;;;;;26.70;68.10;;;;;;6306329;22;20245;-77
2023/07/06 05:43:09;;;;;;;;;;;26.60;66.70;;;;;;6278231;22;20313;-77
2023/07/06 05:45:34;;;;;;;;;;;26.30;66.90;;;;;;6306732;22;19907;-77
2023/07/06 05:48:00;;;;;;;;;;;26.20;66.20;;;;;;6307146;22;19913;-77
2023/07/06 05:50:26;;;;;;;;;;;25.90;67.30;;;;;;6306833;22;19913;-76
2023/07/06 05:52:52;;;;;;;;;;;25.80;67.80;;;;;;6306721;22;19907;-76
2023/07/06 05:55:17;;;;;;;;;;;25.80;68.80;;;;;;6306600;22;19942;-76
2023/07/06 05:57:45;;;;;;;;;;;25.90;69.60;;;;;;6307361;22;20317;-76
2023/07/06 06:00:11;;;;;;;;;;;26.10;70.20;;;;;;6305239;22;19907;-75
2023/07/06 06:02:37;;;;;;;;;;;26.20;70.10;;;;;;6306286;22;19911;-73
2023/07/06 06:05:04;;;;;;;;;;;26.30;70.40;;;;;;6304579;22;19907;-74
2023/07/06 06:07:31;;;;;;;;;;;26.60;70.80;;;;;;6306203;22;20240;-74
2023/07/06 06:09:56;;;;;;;;;;;27.00;71.00;;;;;;6307020;22;19972;-74
2023/07/06 06:12:22;;;;;;;;;;;27.50;69.50;;;;;;6305160;22;19907;-74
2023/07/06 06:14:48;;;;;;;;;;;27.80;68.60;;;;;;6303097;22;19918;-73
2023/07/06 06:17:15;;;;;;;;;;;28.20;68.60;;;;;;6306863;22;19907;-73
2023/07/06 06:19:42;;;;;;;;;;;28.50;67.50;;;;;;6306186;22;20312;-73
2023/07/06 06:22:09;;;;;;;;;;;28.80;67.60;;;;;;6306504;22;20260;-73
2023/07/06 06:24:34;;;;;;;;;;;29.10;67.90;;;;;;6302163;22;19907;-73
2023/07/06 06:27:00;;;;;;;;;;;29.50;66.20;;;;;;6306869;22;20037;-73
2023/07/06 06:29:27;;;;;;;;;;;29.60;63.70;;;;;;6279689;22;20188;-72
2023/07/06 06:31:53;;;;;;;;;;;29.70;64.40;;;;;;6306213;22;20374;-72
2023/07/06 06:34:18;;;;;;;;;;;29.90;64.80;;;;;;6303062;22;19915;-72
2023/07/06 06:36:43;;;;;;;;;;;30.00;65.70;;;;;;6306142;22;19903;-72
2023/07/06 06:39:09;;;;;;;;;;;30.20;63.70;;;;;;6305018;22;20259;-72
2023/07/06 06:41:38;;;;;;;;;;;30.30;63.50;;;;;;6305907;22;20100;-72
2023/07/06 06:44:04;;;;;;;;;;;30.50;65.30;;;;;;6303476;22;19914;-72
2023/07/06 06:46:30;;;;;;;;;;;30.80;64.60;;;;;;6305287;22;19903;-71
2023/07/06 06:48:55;;;;;;;;;;;31.10;65.40;;;;;;6306517;22;19956;-71
2023/07/06 06:51:21;;;;;;;;;;;31.40;62.50;;;;;;6305214;22;19960;-71
2023/07/06 06:53:46;;;;;;;;;;;31.60;61.50;;;;;;6303638;22;19980;-71
2023/07/06 06:56:12;;;;;;;;;;;31.80;58.80;;;;;;6305944;22;19990;-71
2023/07/06 06:58:38;;;;;;;;;;;32.00;59.50;;;;;;6307205;22;19907;-71
2023/07/06 07:01:05;;;;;;;;;;;32.20;59.00;;;;;;6304483;22;20239;-71
2023/07/06 07:03:31;;;;;;;;;;;32.50;59.10;;;;;;6276233;22;19914;-71
2023/07/06 07:06:01;;;;;;;;;;;32.80;52.10;;;;;;6305806;22;20317;-71
2023/07/06 07:08:27;;;;;;;;;;;32.90;50.80;;;;;;6278943;22;19931;-71
2023/07/06 07:10:53;;;;;;;;;;;33.10;53.60;;;;;;6304754;22;19937;-70
2023/07/06 07:13:19;;;;;;;;;;;33.50;54.10;;;;;;6303423;22;20312;-70
2023/07/06 07:15:45;;;;;;;;;;;34.00;52.30;;;;;;6306366;22;19957;-71
2023/07/06 07:18:10;;;;;;;;;;;34.30;49.20;;;;;;6306633;22;19907;-70
2023/07/06 07:20:36;;;;;;;;;;;34.40;46.30;;;;;;6305810;22;19938;-70
2023/07/06 07:23:01;;;;;;;;;;;34.30;42.70;;;;;;6302977;22;20291;-70
2023/07/06 07:25:27;;;;;;;;;;;34.00;42.60;;;;;;6304503;22;19907;-70
2023/07/06 07:27:54;;;;;;;;;;;33.80;43.90;;;;;;6305719;22;19942;-70
2023/07/06 07:30:20;;;;;;;;;;;33.80;43.60;;;;;;6301166;22;20280;-71
2023/07/06 07:32:47;;;;;;;;;;;33.70;45.30;;;;;;6305786;22;19911;-70
2023/07/06 07:35:12;;;;;;;;;;;33.70;44.30;;;;;;6305091;22;19940;-69
2023/07/06 07:37:38;;;;;;;;;;;33.70;44.00;;;;;;6305318;22;19942;-69
2023/07/06 07:40:05;;;;;;;;;;;33.80;43.10;;;;;;6306055;22;19914;-68
2023/07/06 07:42:30;;;;;;;;;;;34.10;42.20;;;;;;6304862;22;19964;-68
2023/07/06 07:44:57;;;;;;;;;;;34.30;40.70;;;;;;6306026;22;20229;-69
2023/07/06 07:47:24;;;;;;;;;;;34.50;41.10;;;;;;6306033;22;19907;-69
2023/07/06 07:49:49;;;;;;;;;;;34.70;40.40;;;;;;6304861;22;19918;-70
2023/07/06 07:52:15;;;;;;;;;;;34.90;40.40;;;;;;6306477;22;19911;-69
2023/07/06 07:54:42;;;;;;;;;;;35.20;37.90;;;;;;6302574;22;19911;-68
2023/07/06 07:57:07;;;;;;;;;;;35.20;38.30;;;;;;6305872;22;19988;-68
2023/07/06 07:59:33;;;;;;;;;;;35.10;36.80;;;;;;6304123;22;19911;-69
2023/07/06 08:01:58;;;;;;;;;;;35.10;38.00;;;;;;6305840;22;19989;-68
2023/07/06 08:04:24;;;;;;;;;;;35.00;34.60;;;;;;6302397;22;19985;-69
2023/07/06 08:06:50;;;;;;;;;;;34.80;34.10;;;;;;6305290;22;20400;-69
2023/07/06 08:09:16;;;;;;;;;;;34.50;35.10;;;;;;6303031;22;19915;-68
2023/07/06 08:11:46;;;;;;;;;;;34.40;34.30;;;;;;6304917;22;20282;-69
2023/07/06 08:14:13;;;;;;;;;;;34.20;34.30;;;;;;6302192;22;19918;-68
2023/07/06 08:16:40;;;;;;;;;;;34.00;34.90;;;;;;6305695;22;20340;-67
2023/07/06 08:19:06;;;;;;;;;;;33.90;34.00;;;;;;6304416;22;19961;-68
2023/07/06 08:21:32;;;;;;;;;;;33.80;32.80;;;;;;6305495;22;19991;-68
2023/07/06 08:23:58;;;;;;;;;;;33.70;33.50;;;;;;6301467;22;19945;-69
2023/07/06 08:26:24;;;;;;;;;;;33.50;32.00;;;;;;6305212;22;19907;-68
2023/07/06 08:28:49;;;;;;;;;;;33.30;32.10;;;;;;6305958;22;19907;-69
2023/07/06 08:31:17;;;;;;;;;;;33.40;32.70;;;;;;6278164;22;20360;-69
2023/07/06 08:33:43;;;;;;;;;;;33.50;31.10;;;;;;6301855;22;20269;-69
2023/07/06 08:36:09;;;;;;;;;;;33.40;31.10;;;;;;6305355;22;19918;-69
2023/07/06 08:38:38;;;;;;;;;;;33.30;31.00;;;;;;6305332;22;19914;-70
2023/07/06 08:41:10;;;;;;;;;;;33.30;31.70;;;;;;6304677;22;19907;-69
2023/07/06 08:43:36;;;;;;;;;;;33.40;32.60;;;;;;6303077;22;19938;-70
2023/07/06 08:46:04;;;;;;;;;;;33.80;31.10;;;;;;6304999;22;19930;-69
2023/07/06 08:48:31;;;;;;;;;;;34.20;31.00;;;;;;6306413;22;20347;-69
2023/07/06 08:51:12;;;;;;;;;;;34.70;31.20;;;;;;6305453;22;20394;-69
2023/07/06 08:53:38;;;;;;;;;;;35.40;31.80;;;;;;6301957;22;19913;-68
2023/07/06 08:56:08;;;;;;;;;;;36.20;32.10;;;;;;6304712;22;19954;-70
2023/07/06 08:58:34;;;;;;;;;;;36.90;29.30;;;;;;6305932;22;19906;-68
2023/07/06 09:01:06;;;;;;;;;;;37.40;27.90;;;;;;6304491;22;20033;-67
2023/07/06 09:03:35;;;;;;;;;;;37.40;27.70;;;;;;6303113;22;19907;-68
2023/07/06 09:06:01;;;;;;;;;;;37.40;28.50;;;;;;6305131;22;20317;-69
2023/07/06 09:08:27;;;;;;;;;;;37.60;27.70;;;;;;6305760;22;19952;-67
2023/07/06 09:10:53;;;;;;;;;;;38.10;27.80;;;;;;6304985;22;19911;-68
2023/07/06 09:13:25;;;;;;;;;;;38.50;26.50;;;;;;6302052;22;19915;-68
2023/07/06 09:15:56;;;;;;;;;;;39.00;25.50;;;;;;6304798;22;19915;-68
2023/07/06 09:18:22;;;;;;;;;;;39.20;23.50;;;;;;6305002;22;19917;-68
2023/07/06 09:20:49;;;;;;;;;;;39.30;23.50;;;;;;6305168;22;19907;-68
2023/07/06 09:23:15;;;;;;;;;;;39.50;23.90;;;;;;6302893;22;19915;-67
2023/07/06 09:25:43;;;;;;;;;;;39.80;23.10;;;;;;6304353;22;19914;-68
2023/07/06 09:28:17;;;;;;;;;;;39.90;22.80;;;;;;6305488;22;20324;-68
2023/07/06 09:30:42;;;;;;;;;;;40.00;22.80;;;;;;6304586;22;19933;-67
2023/07/06 09:33:24;;;;;;;;;;;40.00;21.90;;;;;;6302351;22;19990;-68
2023/07/06 09:35:53;;;;;;;;;;;39.70;21.90;;;;;;6305162;22;19919;-68
2023/07/06 09:38:18;;;;;;;;;;;39.30;22.40;;;;;;6307554;22;19993;-67
2023/07/06 09:40:44;;;;;;;;;;;39.40;23.50;;;;;;6306436;22;19942;-67
2023/07/06 09:43:24;;;;;;;;;;;39.90;23.10;;;;;;6304178;22;19918;-68
2023/07/06 09:45:51;;;;;;;;;;;40.40;21.70;;;;;;6305911;22;20241;-68
2023/07/06 09:48:32;;;;;;;;;;;40.80;21.00;;;;;;6306129;22;19907;-68
2023/07/06 09:51:16;;;;;;;;;;;40.90;21.50;;;;;;6306490;22;20356;-68
2023/07/06 09:53:44;;;;;;;;;;;41.00;21.00;;;;;;6303508;22;20327;-68
2023/07/06 09:56:11;;;;;;;;;;;40.70;21.10;;;;;;6306682;22;19918;-69
2023/07/06 09:58:37;;;;;;;;;;;40.50;21.20;;;;;;6307344;22;19907;-68
2023/07/06 10:01:05;;;;;;;;;;;40.50;20.90;;;;;;6306454;22;19913;-69
2023/07/06 10:03:52;;;;;;;;;;;40.50;20.60;;;;;;6304424;22;19943;-69
2023/07/06 10:06:23;;;;;;;;;;;40.70;21.50;;;;;;6306070;22;19907;-66
2023/07/06 10:08:57;;;;;;;;;;;40.90;21.20;;;;;;6279423;22;19910;-68
2023/07/06 10:11:31;;;;;;;;;;;41.00;21.30;;;;;;6306846;22;19907;-69
2023/07/06 10:14:02;;;;;;;;;;;41.20;21.10;;;;;;6302748;22;20423;-67
2023/07/06 10:16:42;;;;;;;;;;;41.40;20.50;;;;;;6305392;22;19903;-67
2023/07/06 10:19:23;;;;;;;;;;;41.50;20.20;;;;;;6305456;22;19915;-67
2023/07/06 10:21:48;;;;;;;;;;;41.40;19.80;;;;;;6306675;22;19945;-66
2023/07/06 10:24:13;;;;;;;;;;;41.30;19.50;;;;;;6302571;22;20287;-67
2023/07/06 10:26:52;;;;;;;;;;;41.20;19.90;;;;;;6306210;22;19915;-67
2023/07/06 10:29:24;;;;;;;;;;;41.20;19.90;;;;;;6279117;22;19965;-68
2023/07/06 10:31:53;;;;;;;;;;;41.00;20.10;;;;;;6306062;22;19903;-67
2023/07/06 10:34:25;;;;;;;;;;;41.00;19.70;;;;;;6302586;22;20344;-66
2023/07/06 10:36:51;;;;;;;;;;;40.90;19.70;;;;;;6306439;22;19910;-67
2023/07/06 10:39:25;;;;;;;;;;;40.80;19.50;;;;;;6305930;22;19914;-67
2023/07/06 10:42:04;;;;;;;;;;;40.80;19.60;;;;;;6306115;22;19990;-67
2023/07/06 10:44:46;;;;;;;;;;;40.70;20.10;;;;;;6302326;22;20301;-67
2023/07/06 10:47:35;;;;;;;;;;;40.80;19.80;;;;;;6306236;22;20328;-67
2023/07/06 10:50:07;;;;;;;;;;;40.80;19.70;;;;;;6284178;22;19915;-68
2023/07/06 10:52:35;;;;;;;;;;;40.80;19.90;;;;;;6305746;22;19952;-68
2023/07/06 10:55:04;;;;;;;;;;;40.90;19.70;;;;;;6303323;22;19952;-68
2023/07/06 10:57:33;;;;;;;;;;;41.10;19.60;;;;;;6305462;22;19918;-68
2023/07/06 11:00:12;;;;;;;;;;;41.30;19.60;;;;;;6278431;22;19977;-69
2023/07/06 11:02:40;;;;;;;;;;;41.50;19.30;;;;;;6305731;22;19911;-69
2023/07/06 11:05:10;;;;;;;;;;;41.40;18.80;;;;;;6302882;22;19911;-69
2023/07/06 11:07:39;;;;;;;;;;;41.30;19.30;;;;;;6306238;22;20329;-68
2023/07/06 11:10:15;;;;;;;;;;;41.20;19.10;;;;;;6305822;22;19946;-67
2023/07/06 11:12:55;;;;;;;;;;;41.20;18.70;;;;;;6305119;22;19913;-70
2023/07/06 11:15:24;;;;;;;;;;;40.70;18.80;;;;;;6304136;22;19911;-69
2023/07/06 11:17:51;;;;;;;;;;;40.10;19.00;;;;;;6305260;22;20249;-69
2023/07/06 11:20:24;;;;;;;;;;;39.80;19.40;;;;;;6305634;22;20241;-68
2023/07/06 11:22:52;;;;;;;;;;;39.50;19.40;;;;;;6304349;22;20241;-70
2023/07/06 11:25:19;;;;;;;;;;;39.30;19.40;;;;;;6304145;22;19906;-70
2023/07/06 11:27:46;;;;;;;;;;;38.90;19.80;;;;;;6305778;22;19934;-69
2023/07/06 11:30:13;;;;;;;;;;;38.60;20.10;;;;;;6306029;22;19907;-68
2023/07/06 11:32:51;;;;;;;;;;;38.30;20.10;;;;;;6304778;22;19917;-72
2023/07/06 11:35:24;;;;;;;;;;;38.30;20.60;;;;;;6304499;22;19911;-68
2023/07/06 11:37:49;;;;;;;;;;;38.30;20.70;;;;;;6305133;22;20310;-70
2023/07/06 11:40:23;;;;;;;;;;;38.20;20.30;;;;;;6306277;22;19977;-69
2023/07/06 11:42:55;;;;;;;;;;;38.00;20.60;;;;;;6305084;22;19911;-70
2023/07/06 11:45:31;;;;;;;;;;;37.80;20.90;;;;;;6303088;22;19950;-70
2023/07/06 11:47:59;;;;;;;;;;;37.70;21.10;;;;;;6306363;22;19907;-70
2023/07/06 11:50:30;;;;;;;;;;;37.50;21.40;;;;;;6305376;22;20229;-69
2023/07/06 11:53:09;;;;;;;;;;;37.50;21.60;;;;;;6304890;22;19984;-68
2023/07/06 11:55:50;;;;;;;;;;;37.50;21.30;;;;;;6302415;22;19915;-69
2023/07/06 11:58:29;;;;;;;;;;;37.40;21.20;;;;;;6278898;22;20099;-68
2023/07/06 12:00:56;;;;;;;;;;;37.30;21.20;;;;;;6305612;22;19915;-67
2023/07/06 12:03:26;;;;;;;;;;;37.00;21.60;;;;;;6302077;22;19960;-68
2023/07/06 12:05:56;;;;;;;;;;;36.90;21.40;;;;;;6305608;22;19915;-69
2023/07/06 12:08:30;;;;;;;;;;;36.70;21.10;;;;;;6305230;22;19918;-69
2023/07/06 12:11:16;;;;;;;;;;;36.30;21.20;;;;;;6305451;22;19934;-68
2023/07/06 12:13:43;;;;;;;;;;;36.00;21.70;;;;;;6303227;22;19907;-68
2023/07/06 12:16:09;;;;;;;;;;;36.00;22.00;;;;;;6304526;22;19946;-68
2023/07/06 12:18:36;;;;;;;;;;;36.00;22.00;;;;;;6306247;22;20313;-67
2023/07/06 12:21:02;;;;;;;;;;;36.20;22.20;;;;;;6304559;22;19907;-67
2023/07/06 12:23:28;;;;;;;;;;;36.50;21.70;;;;;;6302780;22;20241;-69
2023/07/06 12:25:54;;;;;;;;;;;36.80;21.30;;;;;;6305476;22;19907;-68
2023/07/06 12:28:20;;;;;;;;;;;37.10;21.50;;;;;;6277534;22;20218;-69
2023/07/06 12:30:49;;;;;;;;;;;37.30;21.30;;;;;;6305325;22;19964;-68
2023/07/06 12:33:16;;;;;;;;;;;37.20;20.90;;;;;;6304075;22;19977;-69
2023/07/06 12:35:42;;;;;;;;;;;37.00;20.50;;;;;;6303853;22;20230;-68
2023/07/06 12:38:15;;;;;;;;;;;37.00;21.00;;;;;;6305911;22;19903;-68
2023/07/06 12:40:41;;;;;;;;;;;37.10;21.30;;;;;;6305792;22;19942;-67
2023/07/06 12:43:13;;;;;;;;;;;37.60;21.60;;;;;;6304282;22;19903;-68
2023/07/06 12:45:39;;;;;;;;;;;38.00;20.50;;;;;;6303651;22;19918;-68
2023/07/06 12:48:07;;;;;;;;;;;38.10;20.80;;;;;;6305850;22;19903;-67
2023/07/06 12:50:35;;;;;;;;;;;38.00;20.10;;;;;;6305380;22;19991;-68
2023/07/06 12:53:19;;;;;;;;;;;37.80;20.40;;;;;;6304528;22;19960;-68
2023/07/06 12:55:45;;;;;;;;;;;37.50;20.30;;;;;;6304277;22;20345;-68
2023/07/06 12:58:24;;;;;;;;;;;36.90;20.60;;;;;;6305049;22;19957;-68
2023/07/06 13:00:50;;;;;;;;;;;36.50;21.00;;;;;;6304685;22;19907;-69
2023/07/06 13:03:16;;;;;;;;;;;36.10;21.50;;;;;;6304816;22;19911;-70
2023/07/06 13:05:50;;;;;;;;;;;35.80;21.90;;;;;;6302986;22;19915;-68
2023/07/06 13:08:16;;;;;;;;;;;35.50;21.70;;;;;;6306000;22;19915;-68
2023/07/06 13:10:43;;;;;;;;;;;35.30;22.30;;;;;;6305358;22;19914;-69
2023/07/06 13:13:19;;;;;;;;;;;35.20;22.40;;;;;;6306097;22;20279;-69
2023/07/06 13:15:46;;;;;;;;;;;35.00;22.20;;;;;;6305827;22;19911;-68
2023/07/06 13:18:16;;;;;;;;;;;34.70;22.20;;;;;;6307385;22;19921;-68
2023/07/06 13:20:42;;;;;;;;;;;34.30;22.60;;;;;;6307042;22;19907;-68
2023/07/06 13:23:08;;;;;;;;;;;34.50;23.10;;;;;;6305441;22;20214;-69
2023/07/06 13:25:38;;;;;;;;;;;34.60;23.30;;;;;;6303949;22;19914;-68
2023/07/06 13:28:04;;;;;;;;;;;34.70;23.60;;;;;;6307994;22;19907;-68
2023/07/06 13:30:30;;;;;;;;;;;35.00;23.60;;;;;;6307140;22;19907;-69
2023/07/06 13:32:56;;;;;;;;;;;35.30;23.30;;;;;;6304727;22;20312;-68
2023/07/06 13:35:22;;;;;;;;;;;35.60;22.40;;;;;;6304094;22;19917;-69
2023/07/06 13:37:47;;;;;;;;;;;35.70;21.80;;;;;;6307119;22;19939;-69
2023/07/06 13:40:13;;;;;;;;;;;35.70;21.90;;;;;;6306826;22;19907;-69
2023/07/06 13:42:38;;;;;;;;;;;35.60;22.20;;;;;;6306506;22;19953;-69
2023/07/06 13:45:11;;;;;;;;;;;35.70;22.30;;;;;;6275661;22;19914;-69
2023/07/06 13:47:37;;;;;;;;;;;35.80;22.50;;;;;;6307539;22;19933;-68
2023/07/06 13:50:02;;;;;;;;;;;36.20;22.30;;;;;;6306859;22;19911;-69
2023/07/06 13:52:29;;;;;;;;;;;36.40;21.70;;;;;;6306944;22;19914;-69
2023/07/06 13:54:55;;;;;;;;;;;36.40;21.30;;;;;;6304089;22;20350;-69
2023/07/06 13:57:20;;;;;;;;;;;36.50;21.20;;;;;;6306084;22;19964;-68
2023/07/06 13:59:46;;;;;;;;;;;36.40;20.40;;;;;;6306412;22;19960;-69
2023/07/06 14:02:12;;;;;;;;;;;36.10;20.60;;;;;;6279877;22;19907;-68
2023/07/06 14:04:39;;;;;;;;;;;36.00;20.70;;;;;;6301824;22;19914;-68
2023/07/06 14:07:05;;;;;;;;;;;35.90;20.80;;;;;;6306788;22;19907;-68
2023/07/06 14:09:30;;;;;;;;;;;36.00;20.80;;;;;;6306706;22;19929;-68
2023/07/06 14:11:56;;;;;;;;;;;36.10;21.20;;;;;;6306684;22;19957;-68
2023/07/06 14:14:21;;;;;;;;;;;36.20;21.30;;;;;;6302267;22;19963;-68
2023/07/06 14:16:46;;;;;;;;;;;36.40;21.60;;;;;;6306398;22;19903;-68
2023/07/06 14:19:12;;;;;;;;;;;36.50;21.10;;;;;;6306528;22;19907;-68
2023/07/06 14:21:37;;;;;;;;;;;36.50;20.50;;;;;;6305664;22;19934;-68